createdAt,value
2022-07-29T00:00:05.688Z,99971.20
2022-07-29T00:02:53.200Z,99971.38
2022-07-29T00:05:21.018Z,99969.76
2022-07-29T00:07:48.554Z,99969.64
2022-07-29T00:10:16.193Z,99972.75
2022-07-29T00:12:44.040Z,99972.02
2022-07-29T00:15:12.032Z,99972.46
2022-07-29T00:17:39.764Z,99972.89
2022-07-29T00:20:09.187Z,99971.19
2022-07-29T00:22:38.840Z,99971.52
2022-07-29T00:25:08.479Z,99977.83
2022-07-29T00:27:36.797Z,99973.91
2022-07-29T00:30:05.181Z,99971.57
2022-07-29T00:32:32.991Z,99975.36
2022-07-29T00:35:19.694Z,99974.65
2022-07-29T00:37:47.326Z,99970.00
2022-07-29T00:40:14.942Z,99964.88
2022-07-29T00:42:43.389Z,99968.38
2022-07-29T00:45:12.208Z,99966.67
2022-07-29T00:47:39.918Z,99965.80
2022-07-29T00:50:09.210Z,99963.33
2022-07-29T00:52:38.402Z,99971.21
2022-07-29T00:55:09.378Z,99974.15
2022-07-29T00:57:37.555Z,99967.40
2022-07-29T01:00:07.167Z,99965.11
2022-07-29T01:02:34.906Z,99967.04
2022-07-29T01:05:02.978Z,99964.29
2022-07-29T01:07:32.967Z,99961.09
2022-07-29T01:10:01.396Z,99957.53
2022-07-29T01:12:32.201Z,99955.15
2022-07-29T01:15:00.749Z,99954.59
2022-07-29T01:17:33.060Z,99952.39
2022-07-29T01:20:03.878Z,99951.02
2022-07-29T01:22:38.018Z,99945.20
2022-07-29T01:25:20.695Z,99941.59
2022-07-29T01:28:02.241Z,99941.70
2022-07-29T01:30:33.248Z,99947.93
2022-07-29T01:33:06.786Z,99945.81
2022-07-29T01:35:37.268Z,99945.52
2022-07-29T01:38:08.101Z,99943.30
2022-07-29T01:40:39.746Z,99943.17
2022-07-29T01:43:11.103Z,99946.61
2022-07-29T01:45:41.395Z,99946.48
2022-07-29T01:48:12.977Z,99947.05
2022-07-29T01:50:49.131Z,99950.11
2022-07-29T01:53:22.462Z,99946.78
2022-07-29T01:55:51.108Z,99942.41
2022-07-29T01:58:19.923Z,99946.40
2022-07-29T02:00:49.154Z,99945.55
2022-07-29T02:03:18.307Z,99946.85
2022-07-29T02:05:47.428Z,99945.07
2022-07-29T02:08:16.207Z,99939.12
2022-07-29T02:10:46.088Z,99943.05
2022-07-29T02:13:14.660Z,99937.01
2022-07-29T02:15:43.003Z,99940.08
2022-07-29T02:18:13.708Z,99942.84
2022-07-29T02:20:44.044Z,99941.63
2022-07-29T02:23:12.565Z,99938.16
2022-07-29T02:25:42.119Z,99938.77
2022-07-29T02:28:11.198Z,99933.98
2022-07-29T02:30:41.132Z,99930.15
2022-07-29T02:33:09.592Z,99932.48
2022-07-29T02:35:37.938Z,99933.20
2022-07-29T02:38:23.846Z,99931.13
2022-07-29T02:40:52.741Z,99928.77
2022-07-29T02:43:21.950Z,99923.52
2022-07-29T02:45:52.098Z,99920.37
2022-07-29T02:48:20.824Z,99919.46
2022-07-29T02:50:51.004Z,99918.09
2022-07-29T02:53:19.579Z,99919.08
2022-07-29T02:55:52.345Z,99921.28
2022-07-29T02:58:23.027Z,99913.82
2022-07-29T03:00:52.353Z,99914.08
2022-07-29T03:06:58.917Z,99905.40
2022-07-29T03:09:27.972Z,99900.60
2022-07-29T03:11:56.661Z,99900.75
2022-07-29T03:14:25.057Z,99895.65
2022-07-29T03:16:53.279Z,99899.36
2022-07-29T03:19:21.425Z,99904.88
2022-07-29T03:21:49.730Z,99906.84
2022-07-29T03:24:27.362Z,99905.30
2022-07-29T03:26:56.169Z,99910.91
2022-07-29T03:29:24.669Z,99911.07
2022-07-29T03:31:52.279Z,99916.94
2022-07-29T03:34:19.979Z,99919.19
2022-07-29T03:36:51.468Z,99925.41
2022-07-29T03:39:22.012Z,99926.48
2022-07-29T03:41:51.339Z,99927.16
2022-07-29T03:44:20.259Z,99926.39
2022-07-29T03:46:49.067Z,99925.84
2022-07-29T03:49:17.597Z,99926.30
2022-07-29T03:51:47.068Z,99927.73
2022-07-29T03:54:14.895Z,99922.01
2022-07-29T03:56:46.557Z,99919.91
2022-07-29T03:59:14.364Z,99917.20
2022-07-29T04:01:42.786Z,99918.44
2022-07-29T04:04:11.088Z,99914.51
2022-07-29T04:06:40.301Z,99912.21
2022-07-29T04:09:09.879Z,99908.00
2022-07-29T04:12:02.712Z,99906.12
2022-07-29T04:14:26.786Z,99903.41
2022-07-29T04:16:54.577Z,99899.13
2022-07-29T04:19:22.225Z,99888.58
2022-07-29T04:21:49.932Z,99884.54
2022-07-29T04:24:18.605Z,99883.97
2022-07-29T04:26:47.313Z,99878.28
2022-07-29T04:29:15.120Z,99874.91
2022-07-29T04:31:43.669Z,99875.98
2022-07-29T04:34:11.544Z,99877.09
2022-07-29T04:36:39.302Z,99884.65
2022-07-29T04:39:07.003Z,99892.61
2022-07-29T04:41:34.868Z,99895.40
2022-07-29T04:44:05.448Z,99902.85
2022-07-29T04:46:33.366Z,99903.30
2022-07-29T04:49:01.198Z,99906.79
2022-07-29T04:51:29.039Z,99901.75
2022-07-29T04:53:56.788Z,99902.87
2022-07-29T04:56:24.744Z,99898.27
2022-07-29T04:58:52.357Z,99903.73
2022-07-29T05:01:20.371Z,99903.53
2022-07-29T05:03:48.253Z,99904.92
2022-07-29T05:06:16.048Z,99908.92
2022-07-29T05:08:43.729Z,99906.11
2022-07-29T05:11:12.981Z,99910.52
2022-07-29T05:13:46.006Z,99904.02
2022-07-29T05:16:15.181Z,99908.13
2022-07-29T05:18:43.119Z,99906.80
2022-07-29T05:21:10.893Z,99910.20
2022-07-29T05:23:38.575Z,99911.00
2022-07-29T05:26:06.589Z,99906.89
2022-07-29T05:28:34.721Z,99906.10
2022-07-29T05:31:02.888Z,99904.13
2022-07-29T05:33:35.064Z,99901.98
2022-07-29T05:36:05.833Z,99900.27
2022-07-29T05:38:33.785Z,99900.78
2022-07-29T05:41:01.671Z,99896.27
2022-07-29T05:43:29.387Z,99897.73
2022-07-29T05:45:57.522Z,99900.14
2022-07-29T05:48:25.633Z,99891.20
2022-07-29T05:50:53.304Z,99894.71
2022-07-29T05:53:21.224Z,99893.13
2022-07-29T05:55:49.342Z,99895.06
2022-07-29T05:58:17.398Z,99893.35
2022-07-29T06:00:45.562Z,99893.34
2022-07-29T06:03:13.368Z,99888.80
2022-07-29T06:05:41.194Z,99887.52
2022-07-29T06:08:09.326Z,99888.32
2022-07-29T06:10:37.118Z,99885.76
2022-07-29T06:13:05.672Z,99887.18
2022-07-29T06:15:33.767Z,99885.16
2022-07-29T06:18:02.261Z,99884.15
2022-07-29T06:20:30.857Z,99882.94
2022-07-29T06:22:58.912Z,99882.52
2022-07-29T06:25:26.844Z,99887.73
2022-07-29T06:27:54.696Z,99887.50
2022-07-29T06:30:22.556Z,99887.98
2022-07-29T06:32:50.403Z,99890.42
2022-07-29T06:35:41.240Z,99892.45
2022-07-29T06:38:12.012Z,99892.98
2022-07-29T06:41:03.619Z,99892.85
2022-07-29T06:43:33.991Z,99891.73
2022-07-29T06:46:02.151Z,99900.11
2022-07-29T06:48:30.669Z,99899.82
2022-07-29T06:50:58.613Z,99904.73
2022-07-29T06:53:26.464Z,99896.16
2022-07-29T06:55:54.296Z,99892.39
2022-07-29T06:58:22.087Z,99891.05
2022-07-29T07:00:59.340Z,99896.27
2022-07-29T07:03:27.336Z,99890.42
2022-07-29T07:05:55.408Z,99891.73
2022-07-29T07:08:23.980Z,99893.80
2022-07-29T07:10:51.759Z,99890.16
2022-07-29T07:13:19.388Z,99889.47
2022-07-29T07:15:48.787Z,99888.73
2022-07-29T07:18:17.331Z,99891.29
2022-07-29T07:20:45.232Z,99887.50
2022-07-29T07:23:12.803Z,99885.12
2022-07-29T07:25:40.414Z,99883.00
2022-07-29T07:28:08.182Z,99880.85
2022-07-29T07:30:36.007Z,99880.47
2022-07-29T07:33:03.784Z,99879.73
2022-07-29T07:35:31.597Z,99878.19
2022-07-29T07:37:59.564Z,99875.85
2022-07-29T07:40:27.365Z,99878.62
2022-07-29T07:42:55.128Z,99883.85
2022-07-29T07:45:22.794Z,99885.25
2022-07-29T07:47:50.604Z,99886.55
2022-07-29T07:50:19.285Z,99886.05
2022-07-29T07:52:48.489Z,99889.98
2022-07-29T07:55:16.697Z,99890.98
2022-07-29T07:57:44.581Z,99886.79
2022-07-29T08:00:13.831Z,99884.88
2022-07-29T08:02:43.150Z,99886.89
2022-07-29T08:05:12.695Z,99890.17
2022-07-29T08:07:40.875Z,99886.73
2022-07-29T08:10:09.150Z,99889.17
2022-07-29T08:12:36.970Z,99885.48
2022-07-29T08:15:07.602Z,99887.98
2022-07-29T08:17:35.653Z,99887.97
2022-07-29T08:20:04.327Z,99885.55
2022-07-29T08:22:32.091Z,99887.50
2022-07-29T08:24:59.751Z,99894.09
2022-07-29T08:27:44.761Z,99891.64
2022-07-29T08:30:12.683Z,99893.67
2022-07-29T08:32:56.348Z,99896.73
2022-07-29T08:35:24.596Z,99897.35
2022-07-29T08:37:53.055Z,99894.17
2022-07-29T08:40:21.432Z,99900.88
2022-07-29T09:09:34.935Z,99886.41
2022-07-29T09:12:04.401Z,99895.45
2022-07-29T09:14:33.181Z,99895.09
2022-07-29T09:17:02.426Z,99902.63
2022-07-29T09:19:35.112Z,99908.76
2022-07-29T09:22:06.598Z,99906.67
2022-07-29T09:24:40.628Z,99904.67
2022-07-29T09:27:21.501Z,99908.37
2022-07-29T09:29:58.354Z,99907.02
2022-07-29T09:32:27.327Z,99901.42
2022-07-29T09:35:16.756Z,99897.81
2022-07-29T09:37:45.866Z,99896.21
2022-07-29T09:40:17.353Z,99892.92
2022-07-29T09:42:46.604Z,99895.77
2022-07-29T09:45:28.933Z,99886.55
2022-07-29T09:48:00.675Z,99882.06
2022-07-29T09:50:38.523Z,99874.23
2022-07-29T09:53:09.712Z,99876.63
2022-07-29T09:55:49.116Z,99883.13
2022-07-29T09:58:19.220Z,99888.77
2022-07-29T10:00:49.131Z,99891.58
2022-07-29T10:03:18.626Z,99890.24
2022-07-29T10:06:04.115Z,99887.02
2022-07-29T10:08:33.085Z,99884.91
2022-07-29T10:11:12.333Z,99880.98
2022-07-29T10:13:42.409Z,99882.03
2022-07-29T10:16:11.781Z,99880.31
2022-07-29T10:18:42.400Z,99871.25
2022-07-29T10:21:11.409Z,99863.95
2022-07-29T10:23:51.334Z,99853.48
2022-07-29T10:26:20.893Z,99852.86
2022-07-29T10:28:49.488Z,99856.35
2022-07-29T10:31:28.885Z,99866.36
2022-07-29T10:34:07.760Z,99873.37
2022-07-29T10:36:52.099Z,99878.61
2022-07-29T10:39:41.816Z,99878.96
2022-07-29T10:42:33.415Z,99882.09
2022-07-29T10:45:04.778Z,99879.90
2022-07-29T10:47:35.152Z,99877.56
2022-07-29T10:50:06.558Z,99876.64
2022-07-29T10:52:56.911Z,99875.39
2022-07-29T10:55:41.934Z,99868.48
2022-07-29T10:58:17.846Z,99866.27
2022-07-29T11:00:47.931Z,99871.90
2022-07-29T11:03:49.282Z,99869.27
2022-07-29T11:06:26.682Z,99867.30
2022-07-29T11:09:20.197Z,99868.77
2022-07-29T11:11:54.780Z,99869.02
2022-07-29T11:14:55.102Z,99872.05
2022-07-29T11:17:25.557Z,99870.13
2022-07-29T11:20:34.187Z,99872.00
2022-07-29T11:23:23.841Z,99873.80
2022-07-29T11:26:24.140Z,99865.20
2022-07-29T11:28:58.408Z,99862.47
2022-07-29T11:31:38.781Z,99860.59
2022-07-29T11:34:28.044Z,99861.88
2022-07-29T11:37:27.584Z,99856.27
2022-07-29T11:40:26.667Z,99851.05
2022-07-29T11:42:55.360Z,99855.03
2022-07-29T11:45:45.593Z,99854.53
2022-07-29T11:48:29.267Z,99854.01
2022-07-29T11:51:12.152Z,99853.09
2022-07-29T11:53:48.466Z,99857.80
2022-07-29T11:56:25.621Z,99855.69
2022-07-29T11:59:05.396Z,99861.30
2022-07-29T12:01:37.508Z,99865.26
2022-07-29T12:04:07.166Z,99875.09
2022-07-29T12:06:36.136Z,99891.08
2022-07-29T12:09:14.565Z,99893.59
2022-07-29T12:11:55.387Z,99895.06
2022-07-29T12:14:28.357Z,99892.13
2022-07-29T12:16:57.651Z,99858.25
2022-07-29T12:19:27.704Z,99815.84
2022-07-29T12:21:59.452Z,99799.02
2022-07-29T12:24:44.985Z,99798.77
2022-07-29T12:27:18.776Z,99806.88
2022-07-29T12:29:58.423Z,99820.93
2022-07-29T12:32:34.224Z,99827.14
2022-07-29T12:35:06.218Z,99822.06
2022-07-29T12:37:42.535Z,99822.74
2022-07-29T12:40:13.794Z,99832.95
2022-07-29T12:42:42.468Z,99837.40
2022-07-29T12:45:11.776Z,99836.52
2022-07-29T12:47:54.204Z,99827.76
2022-07-29T12:50:26.241Z,99824.44
2022-07-29T12:52:55.495Z,99822.92
2022-07-29T12:55:51.657Z,99817.33
2022-07-29T12:58:31.410Z,99806.57
2022-07-29T13:01:16.965Z,99813.73
2022-07-29T13:03:57.774Z,99816.34
2022-07-29T13:06:31.824Z,99816.48
2022-07-29T13:09:18.783Z,99815.43
2022-07-29T13:11:49.928Z,99812.85
2022-07-29T13:14:34.504Z,99810.34
2022-07-29T13:17:06.458Z,99804.08
2022-07-29T13:19:37.982Z,99804.11
2022-07-29T13:22:06.833Z,99803.89
2022-07-29T13:24:45.729Z,99801.71
2022-07-29T13:27:15.174Z,99793.50
2022-07-29T13:29:43.657Z,99792.89
2022-07-29T13:32:12.705Z,99788.81
2022-07-29T13:34:41.460Z,99786.89
2022-07-29T13:37:10.715Z,99785.20
2022-07-29T13:39:40.184Z,99780.83
2022-07-29T13:42:11.084Z,99780.16
2022-07-29T13:44:40.567Z,99776.17
2022-07-29T13:47:09.700Z,99778.04
2022-07-29T13:49:38.385Z,99780.63
2022-07-29T13:52:07.663Z,99785.23
2022-07-29T13:54:42.128Z,99791.88
2022-07-29T13:57:12.027Z,99802.20
2022-07-29T13:59:42.305Z,99812.38
2022-07-29T14:02:13.767Z,99818.70
2022-07-29T14:04:44.341Z,99825.33
2022-07-29T14:07:16.350Z,99829.20
2022-07-29T14:09:45.099Z,99831.87
2022-07-29T14:12:13.947Z,99827.98
2022-07-29T14:14:43.194Z,99816.70
2022-07-29T14:17:11.984Z,99807.00
2022-07-29T14:19:40.666Z,99801.60
2022-07-29T14:22:10.683Z,99797.27
2022-07-29T14:24:40.062Z,99798.51
2022-07-29T14:27:09.508Z,99797.18
2022-07-29T14:29:38.943Z,99803.60
2022-07-29T14:32:09.365Z,99806.38
2022-07-29T14:34:38.460Z,99808.23
2022-07-29T14:37:07.412Z,99810.34
2022-07-29T14:39:42.469Z,99804.78
2022-07-29T14:42:13.243Z,99797.30
2022-07-29T14:44:41.937Z,99791.59
2022-07-29T14:47:10.751Z,99785.92
2022-07-29T14:49:39.236Z,99776.13
2022-07-29T14:52:07.894Z,99769.30
2022-07-29T14:54:36.609Z,99767.77
2022-07-29T14:57:05.689Z,99769.80
2022-07-29T14:59:34.411Z,99766.94
2022-07-29T15:02:03.642Z,99763.75
2022-07-29T15:04:32.757Z,99759.08
2022-07-29T15:07:01.437Z,99761.20
2022-07-29T15:09:30.467Z,99759.70
2022-07-29T15:11:59.561Z,99760.82
2022-07-29T15:14:28.441Z,99764.84
2022-07-29T15:16:57.158Z,99764.67
2022-07-29T15:19:26.327Z,99759.42
2022-07-29T15:21:59.150Z,99759.08
2022-07-29T15:24:28.571Z,99763.26
2022-07-29T15:26:57.236Z,99773.20
2022-07-29T15:29:25.892Z,99784.27
2022-07-29T15:31:54.481Z,99797.25
2022-07-29T15:34:23.723Z,99802.77
2022-07-29T15:36:53.525Z,99804.66
2022-07-29T15:39:23.119Z,99799.34
2022-07-29T15:41:52.544Z,99791.52
2022-07-29T15:44:21.377Z,99774.18
2022-07-29T15:47:06.529Z,99758.34
2022-07-29T15:49:47.886Z,99752.72
2022-07-29T15:52:25.379Z,99753.23
2022-07-29T15:54:56.040Z,99743.73
2022-07-29T15:57:25.484Z,99736.42
2022-07-29T15:59:54.201Z,99727.75
2022-07-29T16:02:22.757Z,99721.98
2022-07-29T16:04:51.395Z,99714.39
2022-07-29T16:07:19.917Z,99713.63
2022-07-29T16:09:53.081Z,99717.58
2022-07-29T16:12:21.985Z,99715.66
2022-07-29T16:14:51.498Z,99716.77
2022-07-29T16:17:20.871Z,99720.04
2022-07-29T16:19:49.834Z,99724.60
2022-07-29T16:22:18.350Z,99729.30
2022-07-29T16:24:46.991Z,99729.74
2022-07-29T16:27:15.749Z,99733.89
2022-07-29T16:29:46.175Z,99733.75
2022-07-29T16:32:14.992Z,99737.96
2022-07-29T16:34:51.478Z,99737.70
2022-07-29T16:37:20.077Z,99737.69
2022-07-29T16:39:48.702Z,99740.02
2022-07-29T16:42:37.058Z,99737.69
2022-07-29T16:45:08.304Z,99740.90
2022-07-29T16:47:37.080Z,99744.79
2022-07-29T16:50:08.509Z,99744.31
2022-07-29T16:52:37.769Z,99738.30
2022-07-29T16:55:08.169Z,99734.45
2022-07-29T16:57:36.773Z,99735.64
2022-07-29T17:00:07.698Z,99728.91
2022-07-29T17:02:38.052Z,99732.96
2022-07-29T17:05:09.893Z,99730.65
2022-07-29T17:07:37.800Z,99716.38
2022-07-29T17:10:08.105Z,99713.07
2022-07-29T17:12:38.922Z,99714.04
2022-07-29T17:15:10.838Z,99714.77
2022-07-29T17:17:56.470Z,99716.25
2022-07-29T17:20:26.396Z,99719.05
2022-07-29T17:22:55.265Z,99722.98
2022-07-29T17:25:25.640Z,99725.90
2022-07-29T17:28:00.263Z,99732.34
2022-07-29T17:30:30.112Z,99731.09
2022-07-29T17:32:58.741Z,99723.29
2022-07-29T17:35:46.104Z,99722.58
2022-07-29T17:38:14.688Z,99714.16
2022-07-29T17:40:43.263Z,99709.88
2022-07-29T17:43:16.216Z,99705.20
2022-07-29T17:45:49.817Z,99702.16
2022-07-29T17:48:19.800Z,99698.05
2022-07-29T17:50:49.048Z,99695.40
2022-07-29T17:53:17.749Z,99690.61
2022-07-29T17:55:49.019Z,99694.04
2022-07-29T17:58:17.613Z,99694.55
2022-07-29T18:00:46.286Z,99695.82
2022-07-29T18:03:15.247Z,99698.29
2022-07-29T18:05:44.358Z,99695.05
2022-07-29T18:08:13.271Z,99691.77
2022-07-29T18:10:42.041Z,99696.88
2022-07-29T18:13:12.053Z,99699.45
2022-07-29T18:15:41.212Z,99702.07
2022-07-29T18:18:10.293Z,99710.05
2022-07-29T18:20:39.796Z,99698.29
2022-07-29T18:23:09.437Z,99692.61
2022-07-29T18:25:38.864Z,99694.85
2022-07-29T18:28:07.988Z,99695.63
2022-07-29T18:30:37.304Z,99697.40
2022-07-29T18:33:21.223Z,99706.13
2022-07-29T18:35:52.714Z,99708.56
2022-07-29T18:38:40.708Z,99713.98
2022-07-29T18:41:09.354Z,99717.89
2022-07-29T18:43:37.874Z,99730.95
2022-07-29T18:46:06.885Z,99745.23
2022-07-29T18:48:35.828Z,99742.88
2022-07-29T18:51:09.231Z,99737.89
2022-07-29T18:53:38.396Z,99742.40
2022-07-29T18:56:07.075Z,99751.39
2022-07-29T18:58:37.941Z,99744.13
2022-07-29T19:01:07.280Z,99746.10
2022-07-29T19:03:36.228Z,99746.96
2022-07-29T19:06:12.429Z,99745.80
2022-07-29T19:08:41.843Z,99748.20
2022-07-29T19:11:13.464Z,99747.35
2022-07-29T19:13:42.802Z,99744.03
2022-07-29T19:16:17.337Z,99744.48
2022-07-29T19:18:51.694Z,99749.79
2022-07-29T19:21:22.714Z,99750.08
2022-07-29T19:24:01.777Z,99752.94
2022-07-29T19:26:41.602Z,99747.39
2022-07-29T19:29:10.488Z,99748.80
2022-07-29T19:31:39.756Z,99748.59
2022-07-29T19:34:08.973Z,99748.39
2022-07-29T19:36:38.249Z,99746.48
2022-07-29T19:39:07.168Z,99745.21
2022-07-29T19:41:36.115Z,99736.23
2022-07-29T19:44:05.313Z,99735.98
2022-07-29T19:46:34.154Z,99733.05
2022-07-29T19:49:06.235Z,99733.80
2022-07-29T19:51:34.996Z,99735.81
2022-07-29T19:54:03.906Z,99733.98
2022-07-29T19:56:32.668Z,99736.17
2022-07-29T19:59:01.776Z,99735.87
2022-07-29T20:01:32.123Z,99735.60
2022-07-29T20:04:00.892Z,99738.93
2022-07-29T20:06:29.741Z,99739.57
2022-07-29T20:08:59.114Z,99733.77
2022-07-29T20:11:29.545Z,99731.70
2022-07-29T20:13:58.821Z,99727.33
2022-07-29T20:16:28.229Z,99728.27
2022-07-29T20:18:56.985Z,99722.89
2022-07-29T20:21:26.167Z,99716.05
2022-07-29T20:23:59.844Z,99715.00
2022-07-29T20:26:28.738Z,99715.72
2022-07-29T20:28:58.932Z,99715.69
2022-07-29T20:31:30.256Z,99720.80
2022-07-29T20:33:59.975Z,99726.44
2022-07-29T20:36:29.148Z,99728.40
2022-07-29T20:39:00.777Z,99726.27
2022-07-29T20:41:29.608Z,99728.04
2022-07-29T20:43:59.734Z,99724.90
2022-07-29T20:46:28.647Z,99719.30
2022-07-29T20:48:57.514Z,99717.60
2022-07-29T20:51:26.292Z,99718.58
2022-07-29T20:53:55.167Z,99719.21
2022-07-29T20:56:24.600Z,99718.34
2022-07-29T20:58:53.652Z,99718.20
2022-07-29T21:01:22.364Z,99718.88
2022-07-29T21:03:51.147Z,99714.39
2022-07-29T21:06:20.440Z,99709.98
2022-07-29T21:08:49.135Z,99714.35
2022-07-29T21:11:18.191Z,99715.80
2022-07-29T21:14:06.875Z,99709.02
2022-07-29T21:16:35.581Z,99712.33
2022-07-29T21:19:04.329Z,99708.56
2022-07-29T21:21:33.194Z,99707.55
2022-07-29T21:24:03.020Z,99699.10
2022-07-29T21:26:31.570Z,99692.31
2022-07-29T21:29:00.306Z,99693.73
2022-07-29T21:31:28.793Z,99689.35
2022-07-29T21:33:57.405Z,99688.30
2022-07-29T21:36:47.737Z,99689.77
2022-07-29T21:39:14.864Z,99690.95
2022-07-29T21:41:43.505Z,99692.04
2022-07-29T21:44:12.193Z,99688.65
2022-07-29T21:46:40.943Z,99690.23
2022-07-29T21:49:09.497Z,99699.17
2022-07-29T21:51:38.039Z,99703.58
2022-07-29T21:54:06.795Z,99710.23
2022-07-29T21:56:37.414Z,99715.17
2022-07-29T21:59:06.115Z,99714.03
2022-07-29T22:01:39.342Z,99716.64
2022-07-29T22:04:10.294Z,99717.98
2022-07-29T22:06:38.947Z,99715.78
2022-07-29T22:09:07.514Z,99715.50
2022-07-29T22:11:36.241Z,99711.75
2022-07-29T22:14:06.703Z,99707.17
2022-07-29T22:16:35.416Z,99713.05
2022-07-29T22:19:04.159Z,99713.65
2022-07-29T22:21:33.023Z,99710.59
2022-07-29T22:24:01.849Z,99707.73
2022-07-29T22:26:30.543Z,99699.63
2022-07-29T22:28:59.405Z,99698.31
2022-07-29T22:31:27.948Z,99693.10
2022-07-29T22:33:56.720Z,99684.19
2022-07-29T22:36:26.000Z,99682.39
2022-07-29T22:38:54.549Z,99672.83
2022-07-29T22:41:23.114Z,99664.47
2022-07-29T22:43:51.713Z,99654.85
2022-07-29T22:46:20.374Z,99646.48
2022-07-29T22:48:49.069Z,99644.98
2022-07-29T22:51:17.999Z,99636.13
2022-07-29T22:53:46.881Z,99634.72
2022-07-29T22:56:15.513Z,99626.09
2022-07-29T22:58:44.117Z,99618.25
2022-07-29T23:01:13.589Z,99616.98
2022-07-29T23:03:42.276Z,99617.57
2022-07-29T23:06:20.175Z,99616.63
2022-07-29T23:08:48.948Z,99621.13
2022-07-29T23:11:17.645Z,99624.98
2022-07-29T23:13:46.129Z,99627.26
2022-07-29T23:16:14.718Z,99633.35
2022-07-29T23:18:55.884Z,99637.02
2022-07-29T23:21:25.521Z,99634.75
2022-07-29T23:23:54.220Z,99636.35
2022-07-29T23:26:22.710Z,99634.40
2022-07-29T23:28:51.392Z,99631.54
2022-07-29T23:31:20.004Z,99632.23
2022-07-29T23:33:49.547Z,99629.82
2022-07-29T23:36:20.203Z,99625.69
2022-07-29T23:38:48.752Z,99621.06
2022-07-29T23:41:17.552Z,99615.73
2022-07-29T23:43:46.038Z,99611.74
2022-07-29T23:46:14.657Z,99605.03
2022-07-29T23:48:43.970Z,99599.96
2022-07-29T23:51:12.596Z,99599.97
2022-07-29T23:53:53.627Z,99594.16
2022-07-29T23:56:23.267Z,99593.48
2022-07-29T23:58:51.911Z,99595.55
